Time,TemperatureF,DewpointF,PressureIn,WindDirection,WindDirectionDegrees,WindSpeedMPH,WindSpeedGustMPH,Humidity,HourlyPrecipIn,Conditions,Clouds,dailyrainin,SoftwareType,DateUTC
2013-06-17 00:02:00,61.3,42.1,30.81,West,261,0.0,4.0,49,0.00,,,0.00,meteohub,2013-06-17 07:02:00,
2013-06-17 00:22:00,61.0,42.3,30.81,West,262,0.0,0.0,50,0.00,,,0.00,meteohub,2013-06-17 07:22:00,
2013-06-17 00:42:00,60.8,42.6,30.81,West,261,0.0,0.0,51,0.00,,,0.00,meteohub,2013-06-17 07:42:00,
2013-06-17 01:02:00,60.4,42.8,30.81,West,262,0.0,0.0,52,0.00,,,0.00,meteohub,2013-06-17 08:02:00,
2013-06-17 01:42:00,60.1,43.3,30.81,West,261,0.0,0.0,54,0.00,,,0.00,meteohub,2013-06-17 08:42:00,
2013-06-17 02:02:00,60.1,43.3,30.81,West,261,0.0,0.0,54,0.00,,,0.00,meteohub,2013-06-17 09:02:00,
2013-06-17 02:22:00,59.0,42.4,30.81,West,261,0.0,0.0,54,0.00,,,0.00,meteohub,2013-06-17 09:22:00,
2013-06-17 02:42:00,60.1,44.8,30.81,West,261,0.0,3.0,57,0.00,,,0.00,meteohub,2013-06-17 09:42:00,
2013-06-17 03:02:00,60.8,46.4,30.81,South,180,3.0,4.0,59,0.00,,,0.00,meteohub,2013-06-17 10:02:00,
2013-06-17 03:22:00,61.0,47.5,30.81,SSW,203,4.0,0.0,61,0.00,,,0.00,meteohub,2013-06-17 10:22:00,
2013-06-17 03:42:00,61.3,48.6,30.81,South,176,0.0,0.0,63,0.00,,,0.00,meteohub,2013-06-17 10:42:00,
2013-06-17 04:02:00,61.5,48.4,30.81,SSW,201,0.0,5.0,62,0.00,,,0.00,meteohub,2013-06-17 11:02:00,
2013-06-17 04:22:00,61.7,48.2,30.81,West,273,3.0,6.0,61,0.00,,,0.00,meteohub,2013-06-17 11:22:00,
2013-06-17 04:42:00,61.5,47.1,30.81,SW,225,3.0,3.0,59,0.00,,,0.00,meteohub,2013-06-17 11:42:00,
2013-06-17 05:02:00,61.5,46.2,30.81,SW,219,0.0,4.0,57,0.00,,,0.00,meteohub,2013-06-17 12:02:00,
2013-06-17 05:22:00,61.7,45.3,30.84,South,178,0.0,6.0,55,0.00,,,0.00,meteohub,2013-06-17 12:22:00,
2013-06-17 05:42:00,61.7,44.4,30.84,SSE,154,3.0,4.0,53,0.00,,,0.00,meteohub,2013-06-17 12:42:00,
2013-06-17 06:02:00,61.7,43.9,30.84,SE,128,3.0,4.0,52,0.00,,,0.00,meteohub,2013-06-17 13:02:00,
2013-06-17 06:22:00,61.9,44.1,30.84,South,171,4.0,5.0,52,0.00,,,0.00,meteohub,2013-06-17 13:22:00,
2013-06-17 06:42:00,61.9,43.0,30.84,ESE,105,0.0,4.0,50,0.00,,,0.00,meteohub,2013-06-17 13:42:00,
2013-06-17 07:02:00,62.6,43.7,30.84,South,175,5.0,5.0,50,0.00,,,0.00,meteohub,2013-06-17 14:02:00,
2013-06-17 07:22:00,62.4,43.0,30.84,SE,133,0.0,8.0,49,0.00,,,0.00,meteohub,2013-06-17 14:22:00,
2013-06-17 07:42:00,62.8,41.7,30.84,WSW,239,3.0,6.0,46,0.00,,,0.00,meteohub,2013-06-17 14:42:00,
2013-06-17 08:02:00,63.3,42.8,30.87,SSE,152,4.0,4.0,47,0.00,,,0.00,meteohub,2013-06-17 15:02:00,
2013-06-17 08:22:00,64.0,42.8,30.87,South,179,4.0,4.0,46,0.00,,,0.00,meteohub,2013-06-17 15:22:00,
2013-06-17 08:42:00,64.0,41.7,30.87,SSE,166,4.0,5.0,44,0.00,,,0.00,meteohub,2013-06-17 15:42:00,
2013-06-17 09:02:00,65.1,42.1,30.87,SW,236,0.0,5.0,43,0.00,,,0.00,meteohub,2013-06-17 16:02:00,
2013-06-17 09:22:00,64.8,40.5,30.87,WSW,255,3.0,6.0,41,0.00,,,0.00,meteohub,2013-06-17 16:22:00,
2013-06-17 09:42:00,65.5,40.5,30.87,West,270,6.0,6.0,40,0.00,,,0.00,meteohub,2013-06-17 16:42:00,
2013-06-17 10:02:00,65.8,40.1,30.87,West,261,5.0,6.0,39,0.00,,,0.00,meteohub,2013-06-17 17:02:00,
2013-06-17 10:22:00,66.2,39.2,30.87,WSW,248,4.0,8.0,37,0.00,,,0.00,meteohub,2013-06-17 17:22:00,
2013-06-17 10:42:00,67.1,39.2,30.87,WSW,238,6.0,8.0,36,0.00,,,0.00,meteohub,2013-06-17 17:42:00,
2013-06-17 11:02:00,68.0,39.4,30.87,SSW,199,5.0,8.0,35,0.00,,,0.00,meteohub,2013-06-17 18:02:00,
2013-06-17 11:22:00,68.2,39.6,30.87,WSW,254,5.0,8.0,35,0.00,,,0.00,meteohub,2013-06-17 18:22:00,
2013-06-17 11:42:00,68.4,38.8,30.87,SSW,209,5.0,9.0,34,0.00,,,0.00,meteohub,2013-06-17 18:42:00,
2013-06-17 12:02:00,68.4,38.8,30.87,SW,233,9.0,11.0,34,0.00,,,0.00,meteohub,2013-06-17 19:02:00,
2013-06-17 12:22:00,68.9,39.4,30.84,WSW,256,7.0,11.0,34,0.00,,,0.00,meteohub,2013-06-17 19:22:00,
2013-06-17 12:42:00,69.3,39.7,30.84,WSW,246,7.0,11.0,34,0.00,,,0.00,meteohub,2013-06-17 19:42:00,
2013-06-17 13:02:00,70.0,40.3,30.84,SW,232,5.0,11.0,34,0.00,,,0.00,meteohub,2013-06-17 20:02:00,
2013-06-17 13:22:00,70.0,40.3,30.84,WNW,283,8.0,11.0,34,0.00,,,0.00,meteohub,2013-06-17 20:22:00,
2013-06-17 13:42:00,69.8,40.1,30.84,WSW,249,8.0,12.0,34,0.00,,,0.00,meteohub,2013-06-17 20:42:00,
2013-06-17 14:02:00,69.4,39.9,30.84,SW,220,6.0,11.0,34,0.00,,,0.00,meteohub,2013-06-17 21:02:00,
2013-06-17 14:22:00,69.8,40.1,30.81,West,272,9.0,12.0,34,0.00,,,0.00,meteohub,2013-06-17 21:22:00,
2013-06-17 14:42:00,69.6,39.9,30.81,WSW,240,8.0,13.0,34,0.00,,,0.00,meteohub,2013-06-17 21:42:00,
2013-06-17 15:02:00,70.2,40.5,30.81,SW,223,8.0,12.0,34,0.00,,,0.00,meteohub,2013-06-17 22:02:00,
2013-06-17 15:22:00,68.7,39.9,30.81,SW,236,11.0,12.0,35,0.00,,,0.00,meteohub,2013-06-17 22:22:00,
2013-06-17 15:42:00,69.1,40.3,30.81,SW,219,7.0,14.0,35,0.00,,,0.00,meteohub,2013-06-17 22:42:00,
2013-06-17 16:02:00,69.8,40.1,30.78,WSW,256,8.0,13.0,34,0.00,,,0.00,meteohub,2013-06-17 23:02:00,
2013-06-17 16:22:00,69.6,39.9,30.78,West,261,8.0,13.0,34,0.00,,,0.00,meteohub,2013-06-17 23:22:00,
2013-06-17 16:42:00,69.1,40.3,30.78,SSW,211,8.0,11.0,35,0.00,,,0.00,meteohub,2013-06-17 23:42:00,
2013-06-17 17:02:00,68.4,39.6,30.78,SW,236,11.0,12.0,35,0.00,,,0.00,meteohub,2013-06-18 00:02:00,
2013-06-17 17:22:00,68.2,40.3,30.78,West,261,9.0,12.0,36,0.00,,,0.00,meteohub,2013-06-18 00:22:00,
2013-06-17 17:42:00,69.1,41.0,30.78,West,260,8.0,13.0,36,0.00,,,0.00,meteohub,2013-06-18 00:42:00,
2013-06-17 18:02:00,68.9,41.5,30.78,WSW,243,5.0,12.0,37,0.00,,,0.00,meteohub,2013-06-18 01:02:00,
2013-06-17 18:22:00,69.3,41.2,30.78,WSW,257,9.0,12.0,36,0.00,,,0.00,meteohub,2013-06-18 01:22:00,
2013-06-17 18:42:00,68.5,41.9,30.75,SW,232,8.0,11.0,38,0.00,,,0.00,meteohub,2013-06-18 01:42:00,
2013-06-17 19:02:00,67.8,42.6,30.78,SW,222,9.0,10.0,40,0.00,,,0.00,meteohub,2013-06-18 02:02:00,
2013-06-17 19:22:00,67.1,42.6,30.75,SW,222,10.0,12.0,41,0.00,,,0.00,meteohub,2013-06-18 02:22:00,
2013-06-17 19:42:00,66.4,43.2,30.75,SW,235,6.0,11.0,43,0.00,,,0.00,meteohub,2013-06-18 02:42:00,
2013-06-17 20:02:00,65.5,42.4,30.75,SW,229,5.0,8.0,43,0.00,,,0.00,meteohub,2013-06-18 03:02:00,
2013-06-17 21:02:00,64.4,42.6,30.75,SW,228,6.0,6.0,45,0.00,,,0.00,meteohub,2013-06-18 04:02:00,
2013-06-17 21:22:00,64.4,44.8,30.78,SW,224,5.0,9.0,49,0.00,,,0.00,meteohub,2013-06-18 04:22:00,
2013-06-17 22:02:00,63.9,45.3,30.78,SSW,213,5.0,9.0,51,0.00,,,0.00,meteohub,2013-06-18 05:02:00,
2013-06-17 22:22:00,63.3,45.0,30.78,SW,224,4.0,6.0,51,0.00,,,0.00,meteohub,2013-06-18 05:22:00,
2013-06-17 22:42:00,63.1,44.8,30.78,South,189,0.0,4.0,51,0.00,,,0.00,meteohub,2013-06-18 05:42:00,
2013-06-17 23:02:00,63.0,45.1,30.78,South,186,3.0,4.0,52,0.00,,,0.00,meteohub,2013-06-18 06:02:00,
2013-06-17 23:22:00,62.8,45.0,30.78,SSW,195,0.0,4.0,52,0.00,,,0.00,meteohub,2013-06-18 06:22:00,
2013-06-17 23:42:00,62.4,45.5,30.78,SW,234,0.0,5.0,54,0.00,,,0.00,meteohub,2013-06-18 06:42:00,